M I D A S
Marine Information and Data Acquisition System
Tripno 65 of the Zeeleeuw from 2001-10-30 07:18:24 to 2001-10-30 16:50:00
Back to CruiseResearch ActivitiesStationsMapUnderway DataData graphs

EquipmentUnitsComment
TimeDGPSUTC
LatitudeDGPSDM.mWGS84
LongitudeDGPSDM.mWGS84
TemperatureSBE03/SBE38deg celciusITS90
ConductivitySBE21S/mITS90
SalinitySBE21 Practical Salinity Units
ChlorophylAChelsea fluorimeterg/lCalibrated in Aceton
Missing or incorrect values are displayed as -999
Sea surface data collected by the RV Zeeleeuw from 2001-10-30 07:18:24 to 2001-10-30 16:50:00
Time Latitude Longitude Temperature Conductivity Salinity ChlorophylA
2001-10-30 07:19:44 51°13.639 2°56.013 19.025177 0.134574 0.757686  
2001-10-30 07:20:44 51°13.639 2°56.013 19.023946 0.134574 0.757761  
2001-10-30 07:21:44 51°13.639 2°56.014 19.02329 0.134475 0.757255  
2001-10-30 07:22:44 51°13.639 2°56.013 19.023495 0.134475 0.757329  
2001-10-30 07:23:44 51°13.639 2°56.013 19.02132 0.134475 0.757392  
2001-10-30 07:24:44 51°13.639 2°56.014 19.023741 0.134475 0.757467  
2001-10-30 07:25:44 51°13.639 2°56.013 19.023372 0.134475 0.757541  
2001-10-30 07:26:44 51°13.639 2°56.013 19.025998 0.134475 0.757604  
2001-10-30 07:27:44 51°13.639 2°56.014 19.027762 0.134475 0.757666  
2001-10-30 07:28:44 51°13.639 2°56.013 19.031291 0.134376 0.757147  
2001-10-30 07:29:44 51°13.639 2°56.014 19.033752 0.134376 0.757209  
2001-10-30 07:30:44 51°13.639 2°56.013 19.03847 0.134376 0.757297  
2001-10-30 07:31:44 51°13.639 2°56.013 19.040275 0.134376 0.757346  
2001-10-30 07:32:44 51°13.639 2°56.013 19.043762 0.134376 0.757434  
2001-10-30 07:33:44 51°13.639 2°56.013 19.048069 0.134376 0.757484  
2001-10-30 07:34:44 51°13.64 2°56.012 19.051966 0.134278 0.756977  
2001-10-30 07:35:44 51°13.64 2°56.012 19.055001 0.134278 0.757064  
2001-10-30 07:36:44 51°13.64 2°56.012 19.06226 0.134278 0.757126  
2001-10-30 07:37:44 51°13.64 2°56.011 19.065581 0.134278 0.757189  
2001-10-30 07:38:44 51°13.639 2°56.01 21.417022 0.134278 0.757239  
2001-10-30 07:39:45 51°13.638 2°56.007 21.060521 0.134278 0.757339  
2001-10-30 07:40:44 51°13.619 2°56.034 20.735584 0.134179 0.756806  
2001-10-30 07:41:44 51°13.574 2°56.114 20.952614 0.134179 0.756856  
2001-10-30 07:42:44 51°13.555 2°56.223 21.07196 0.134179 0.756944  
2001-10-30 07:43:44 51°13.523 2°56.297 21.692533 0.134179 0.757131  
2001-10-30 07:44:45 51°13.52 2°56.295 21.423922 0.134179 0.757106  
2001-10-30 07:45:44 51°13.509 2°56.277 21.335787 0.134179 0.757169  
2001-10-30 07:46:44 51°13.522 2°56.213 21.151745 0.134179 0.757256  
2001-10-30 07:47:44 51°13.561 2°56.111 20.832986 0.13408 0.756748  
2001-10-30 07:48:44 51°13.595 2°56.022 21.268174 0.13408 0.756861  
2001-10-30 07:49:44 51°13.628 2°55.934 21.337137 0.13408 0.756948  
2001-10-30 07:50:47 51°13.693 2°55.792 21.53076 0.13408 0.757023  
2001-10-30 07:51:47 51°13.798 2°55.658 21.39937 0.13408 0.757111  
2001-10-30 07:52:47 51°13.929 2°55.562 21.236132 0.133981 0.756578  
2001-10-30 07:53:47 51°14.074 2°55.462 20.922626 0.133981 0.756615  
2001-10-30 07:54:47 51°14.221 2°55.322 21.77419 0.133981 0.756678  
2001-10-30 07:55:47 51°14.339 2°55.123 21.612444 0.133981 0.756728  
2001-10-30 07:56:47 51°14.454 2°54.903 21.168503 0.133981 0.756816  
2001-10-30 07:57:47 51°14.617 2°54.711 21.799324 0.133981 0.756853  
2001-10-30 07:58:47 51°14.793 2°54.529 21.276361 0.133883 0.756295  
2001-10-30 07:59:47 51°14.962 2°54.337 20.84762 0.133883 0.756332  
2001-10-30 08:00:47 51°15.132 2°54.153 21.561125 0.133883 0.75637  
2001-10-30 08:01:47 51°15.318 2°53.978 21.708414 0.133883 0.756407  
2001-10-30 08:02:47 51°15.51 2°53.806 21.646293 0.133883 0.756457  
2001-10-30 08:03:47 51°15.703 2°53.635 21.464243 0.133883 0.756482  
2001-10-30 08:04:47 51°15.891 2°53.483 21.692533 0.133883 0.756583  
2001-10-30 08:05:46 51°16.078 2°53.335 21.702528 0.133883 0.756658  
2001-10-30 08:06:47 51°16.279 2°53.176 21.531512 0.133784 0.756149  
2001-10-30 08:07:47 51°16.477 2°53.024 21.320935 0.133784 0.756249  
2001-10-30 08:08:46 51°16.671 2°52.875 21.102124 0.133784 0.756299  
2001-10-30 08:09:47 51°16.869 2°52.722 21.631625 0.133784 0.756374  
2001-10-30 08:10:47 51°17.063 2°52.57 21.083398 0.133784 0.7565  
2001-10-30 08:11:47 51°17.248 2°52.391 21.329513 0.133784 0.75655  
2001-10-30 08:12:47 51°17.42 2°52.178 21.372348 0.133685 0.756016  
2001-10-30 08:13:47 51°17.581 2°51.941 21.616676 0.133784 0.75665  
2001-10-30 08:14:47 51°17.727 2°51.684 21.140955 0.133685 0.756116  
2001-10-30 08:15:47 51°17.861 2°51.404 21.219151 0.133685 0.756204  
2001-10-30 08:16:47 51°17.992 2°51.12 21.520741 0.133685 0.756266  
2001-10-30 08:17:47 51°18.115 2°50.826 21.595236 0.133685 0.756367  
2001-10-30 08:18:47 51°18.24 2°50.531 21.382626 0.133685 0.756429  
2001-10-30 08:19:47 51°18.363 2°50.235 21.306239 0.133685 0.756504  
2001-10-30 08:20:47 51°18.486 2°49.936 21.702884 0.133586 0.755983  
2001-10-30 08:21:46 51°18.609 2°49.642 21.563342 0.133586 0.756033  
2001-10-30 08:22:47 51°18.736 2°49.341 21.184223 0.133586 0.756108  
2001-10-30 08:23:47 51°18.866 2°49.047 21.331737 0.133586 0.756208  
2001-10-30 08:24:47 51°18.994 2°48.751 21.34754 0.133586 0.756259  
2001-10-30 08:25:47 51°19.122 2°48.455 21.225356 0.133586 0.756371  
2001-10-30 08:26:46 51°19.246 2°48.162 21.406074 0.133586 0.756409  
2001-10-30 08:27:47 51°19.371 2°47.857 21.806977 0.133586 0.756459  
2001-10-30 08:28:47 51°19.494 2°47.554 21.664754 0.133488 0.755937  
2001-10-30 08:29:47 51°19.618 2°47.248 21.384214 0.133488 0.755975  
2001-10-30 08:30:47 51°19.742 2°46.942 21.630913 0.133488 0.756038  
2001-10-30 08:31:47 51°19.864 2°46.638 21.706637 0.133488 0.756113  
2001-10-30 08:32:47 51°19.927 2°46.288 21.752719 0.133488 0.756163  
2001-10-30 08:33:47 51°20.013 2°45.954 21.636607 0.133488 0.756238  
2001-10-30 08:34:47 51°20.081 2°45.608 21.207855 0.133488 0.756263  
2001-10-30 08:35:47 51°20.148 2°45.255 21.224878 0.133389 0.755741  
2001-10-30 08:36:47 51°20.215 2°44.906 21.005331 0.133389 0.755779  
2001-10-30 08:37:47 51°20.283 2°44.554 21.38215 0.133389 0.755854  
2001-10-30 08:38:47 51°20.348 2°44.201 21.175627 0.133389 0.755904  
2001-10-30 08:39:47 51°20.406 2°43.847 21.417497 0.133389 0.755954  
2001-10-30 08:40:47 51°20.464 2°43.497 21.491428 0.133389 0.756017  
2001-10-30 08:41:47 51°20.514 2°43.146 21.253665 0.133389 0.75608  
2001-10-30 08:42:47 51°20.565 2°42.798 21.395998 0.133389 0.75613  
2001-10-30 08:43:47 51°20.616 2°42.45 21.023041 0.13329 0.755595  
2001-10-30 08:44:47 51°20.654 2°42.098 21.298056 0.13329 0.755633  
2001-10-30 08:45:47 51°20.689 2°41.744 21.219986 0.13329 0.755708  
2001-10-30 08:46:47 51°20.718 2°41.39 21.364172 0.13329 0.755783  
2001-10-30 08:47:47 51°20.749 2°41.037 21.705333 0.13329 0.755809  
2001-10-30 08:48:47 51°20.779 2°40.685 21.206542 0.13329 0.755897  
2001-10-30 08:49:47 51°20.81 2°40.334 21.873056 0.13329 0.755897  
2001-10-30 08:50:47 51°20.835 2°39.981 21.825395 0.13329 0.755934  
2001-10-30 08:51:47 51°20.857 2°39.626 21.118257 0.133191 0.755437  
2001-10-30 08:52:47 51°20.874 2°39.27 21.661631 0.133191 0.755474  
2001-10-30 08:53:47 51°20.887 2°38.912 21.844046 0.133191 0.755512  
2001-10-30 08:54:47 51°20.9 2°38.554 21.920646 0.133191 0.755587  
2001-10-30 08:55:47 51°20.912 2°38.198 21.932499 0.133191 0.7556  
2001-10-30 08:56:47 51°20.925 2°37.842 21.467691 0.133191 0.755663  
2001-10-30 08:57:47 51°20.939 2°37.49 21.618337 0.133191 0.755713  
2001-10-30 08:58:47 51°20.952 2°37.134 21.729346 0.133093 0.755165  
2001-10-30 08:59:47 51°20.967 2°36.78 21.877036 0.133093 0.755202  
2001-10-30 09:00:46 51°20.981 2°36.434 21.130642 0.133093 0.755278  
2001-10-30 09:01:47 51°20.998 2°36.071 20.971095 0.133093 0.755328  
2001-10-30 09:02:47 51°21.015 2°35.715 21.347262 0.133093 0.755353  
2001-10-30 09:03:47 51°21.049 2°35.36 21.522879 0.133093 0.755403  
2001-10-30 09:04:47 51°21.081 2°35.01 21.641114 0.133093 0.755466  
2001-10-30 09:05:47 51°21.114 2°34.659 21.881923 0.133093 0.755529  
2001-10-30 09:06:47 51°21.15 2°34.308 21.571614 0.133093 0.755554  
2001-10-30 09:07:47 51°21.214 2°33.973 21.811947 0.132994 0.755018  
2001-10-30 09:08:47 51°21.334 2°33.683 22.021708 0.132994 0.755069  
2001-10-30 09:09:47 51°21.493 2°33.444 21.71738 0.132994 0.755044  
2001-10-30 09:10:47 51°21.651 2°33.209 21.892206 0.132994 0.755182  
2001-10-30 09:11:47 51°21.815 2°32.99 21.880622 0.132994 0.75522  
2001-10-30 09:12:47 51°21.976 2°32.766 21.505967 0.132994 0.755207  
2001-10-30 09:13:47 51°22.141 2°32.541 21.527988 0.132994 0.755257  
2001-10-30 09:14:47 51°22.282 2°32.274 21.900716 0.132994 0.755383  
2001-10-30 09:15:46 51°22.407 2°31.996 22.046519 0.132994 0.755383  
2001-10-30 09:16:47 51°22.501 2°31.677 21.487664 0.132994 0.75537  
2001-10-30 09:17:46 51°22.561 2°31.355 22.052966 0.132994 0.755408  
2001-10-30 09:18:47 51°22.586 2°31 21.615846 0.132994 0.755446  
2001-10-30 09:19:47 51°22.606 2°30.65 21.898431 0.132895 0.75491  
2001-10-30 09:20:47 51°22.628 2°30.3 21.720816 0.132895 0.754922  
2001-10-30 09:21:47 51°22.602 2°29.961 21.765271 0.132895 0.754985  
2001-10-30 09:22:46 51°22.533 2°29.639 21.843454 0.132895 0.755023  
2001-10-30 09:23:47 51°22.442 2°29.314 22.09254 0.132895 0.755061  
2001-10-30 09:24:47 51°22.385 2°28.982 21.52577 0.132895 0.755061  
2001-10-30 09:25:48 51°22.351 2°28.636 21.868958 0.132895 0.755111  
2001-10-30 09:26:47 51°22.34 2°28.296 21.78299 0.132895 0.755149  
2001-10-30 09:27:47 51°22.349 2°27.948 22.129382 0.132895 0.755161  
2001-10-30 09:28:47 51°22.374 2°27.602 22.524888 0.132895 0.755199  
2001-10-30 09:29:47 51°22.396 2°27.255 22.031775 0.132895 0.755224  
2001-10-30 09:30:47 51°22.437 2°26.912 21.82366 0.132796 0.754688  
2001-10-30 09:31:47 51°22.482 2°26.572 21.934783 0.132796 0.754675  
2001-10-30 09:32:47 51°22.552 2°26.244 22.182609 0.132796 0.754713  
2001-10-30 09:33:47 51°22.64 2°25.926 22.225013 0.132796 0.754726  
2001-10-30 09:34:47 51°22.779 2°25.665 22.046991 0.132796 0.754801  
2001-10-30 09:35:47 51°22.953 2°25.453 22.103932 0.132796 0.754801  
2001-10-30 09:36:47 51°23.14 2°25.259 22.149524 0.132796 0.754851  
2001-10-30 09:37:46 51°23.338 2°25.113 22.550384 0.132796 0.754914  
2001-10-30 09:38:47 51°23.54 2°24.953 21.825514 0.132796 0.754889  
2001-10-30 09:39:47 51°23.734 2°24.789 22.368514 0.132796 0.754914  
2001-10-30 09:40:48 51°23.936 2°24.633 22.149524 0.132796 0.755002  
2001-10-30 09:41:47 51°24.138 2°24.505 22.359864 0.132796 0.755078  
2001-10-30 09:42:47 51°24.346 2°24.379 22.092304 0.132796 0.755053  
2001-10-30 09:43:48 51°24.552 2°24.231 22.344754 0.132698 0.754466  
2001-10-30 09:44:47 51°24.757 2°24.104 22.190653 0.132698 0.754516  
2001-10-30 09:45:47 51°24.963 2°23.968 22.653875 0.132698 0.754541  
2001-10-30 09:46:47 51°25.167 2°23.826 22.225366 0.132698 0.754529  
2001-10-30 09:47:47 51°25.371 2°23.683 22.358768 0.132698 0.754592  
2001-10-30 09:48:47 51°25.574 2°23.547 22.44948 0.132698 0.754604  
2001-10-30 09:49:47 51°25.779 2°23.413 22.339077 0.132698 0.754579  
2001-10-30 09:50:47 51°25.984 2°23.277 22.353484 0.132698 0.754579  
2001-10-30 09:51:47 51°26.192 2°23.145 21.95431 0.132698 0.754566  
2001-10-30 09:52:47 51°26.402 2°23.012 22.388705 0.132698 0.754629  
2001-10-30 09:53:47 51°26.612 2°22.888 22.312527 0.132698 0.754629  
2001-10-30 09:54:47 51°26.818 2°22.756 22.524185 0.132698 0.754642  
2001-10-30 09:55:47 51°27.026 2°22.632 22.124042 0.132698 0.75468  
2001-10-30 09:56:47 51°27.234 2°22.498 22.367457 0.132698 0.754642  
2001-10-30 09:57:47 51°27.444 2°22.37 22.542069 0.132698 0.754604  
2001-10-30 09:58:48 51°27.655 2°22.231 22.362995 0.132698 0.754655  
2001-10-30 09:59:47 51°27.862 2°22.108 22.576261 0.132698 0.754667  
2001-10-30 10:00:47 51°28.072 2°21.98 22.601934 0.132698 0.754629  
2001-10-30 10:01:47 51°28.279 2°21.842 22.63949 0.132698 0.754705  
2001-10-30 10:02:46 51°28.486 2°21.714 22.561158 0.132599 0.754118  
2001-10-30 10:03:46 51°28.7 2°21.604 22.748887 0.132599 0.754093  
2001-10-30 10:04:46 51°28.922 2°21.52 22.588162 0.132599 0.75413  
2001-10-30 10:05:46 51°29.148 2°21.458 22.889479 0.132599 0.75408  
2001-10-30 10:06:47 51°29.373 2°21.376 22.497352 0.132599 0.754093  
2001-10-30 10:07:47 51°29.595 2°21.306 22.511375 0.132599 0.75408  
2001-10-30 10:08:46 51°29.814 2°21.23 22.751845 0.132599 0.75408  
2001-10-30 10:09:46 51°30.039 2°21.16 22.633641 0.132599 0.754105  
2001-10-30 10:10:46 51°30.264 2°21.092 22.582739 0.132599 0.75403  
2001-10-30 10:11:47 51°30.497 2°21.043 23.212053 0.132599 0.754067  
2001-10-30 10:12:47 51°30.725 2°20.99 22.787494 0.132599 0.754042  
2001-10-30 10:13:48 51°30.958 2°20.927 22.701377 0.132599 0.754143  
2001-10-30 10:14:47 51°31.18 2°20.87 22.626544 0.132599 0.754067  
2001-10-30 10:15:47 51°31.41 2°20.849 22.482818 0.132599 0.754067  
2001-10-30 10:16:47 51°31.642 2°20.876 22.535431 0.132599 0.753979  
2001-10-30 10:17:47 51°31.874 2°20.897 22.553 0.132599 0.753979  
2001-10-30 10:18:47 51°32.106 2°20.906 22.676753 0.132599 0.753942  
2001-10-30 10:19:47 51°32.337 2°20.932 22.679247 0.132599 0.753967  
2001-10-30 10:20:47 51°32.569 2°20.988 22.915428 0.132599 0.753929  
2001-10-30 10:21:47 51°32.797 2°21.078 23.086312 0.132599 0.753979  
2001-10-30 10:22:47 51°33.015 2°21.228 23.12714 0.132599 0.753879  
2001-10-30 10:23:46 51°33.222 2°21.416 22.906689 0.132599 0.753891  
2001-10-30 10:24:47 51°33.426 2°21.632 22.539063 0.132599 0.753891  
2001-10-30 10:25:47 51°33.618 2°21.863 23.129734 0.132599 0.753879  
2001-10-30 10:26:46 51°33.808 2°22.086 22.857534 0.132599 0.753879  
2001-10-30 10:27:46 51°34.002 2°22.303 23.066781 0.132599 0.753829  
2001-10-30 10:28:47 51°34.197 2°22.534 22.59815 0.132599 0.753791  
2001-10-30 10:29:47 51°34.392 2°22.762 23.159236 0.132599 0.753829  
2001-10-30 10:30:47 51°34.591 2°22.983 22.861382 0.132599 0.753829  
2001-10-30 10:31:47 51°34.782 2°23.212 22.968774 0.132599 0.753816  
2001-10-30 10:32:47 51°34.975 2°23.432 23.467041 0.132599 0.753803  
2001-10-30 10:33:47 51°35.17 2°23.654 23.264831 0.132698 0.754353  
2001-10-30 10:34:47 51°35.359 2°23.892 23.287709 0.132599 0.753653  
2001-10-30 10:35:47 51°35.561 2°24.108 23.214992 0.132599 0.753728  
2001-10-30 10:36:47 51°35.756 2°24.338 22.662567 0.132599 0.75364  
2001-10-30 10:37:47 51°35.947 2°24.577 23.028284 0.132599 0.753653  
2001-10-30 10:38:47 51°36.15 2°24.789 23.175569 0.132599 0.75359  
2001-10-30 10:39:47 51°36.343 2°25.028 22.772785 0.132698 0.754151  
2001-10-30 10:40:47 51°36.541 2°25.247 22.889712 0.132599 0.753627  
2001-10-30 10:41:47 51°36.737 2°25.473 23.378994 0.132698 0.754126  
2001-10-30 10:42:47 51°36.93 2°25.705 23.08422 0.132698 0.754139  
2001-10-30 10:43:47 51°37.121 2°25.934 23.253699 0.132698 0.754101  
2001-10-30 10:44:47 51°37.315 2°26.152 23.677949 0.132698 0.754101  
2001-10-30 10:45:47 51°37.51 2°26.38 23.433424 0.132698 0.754026  
2001-10-30 10:46:47 51°37.703 2°26.607 23.180367 0.132697 0.753938  
2001-10-30 10:47:47 51°37.902 2°26.834 22.86181 0.132697 0.753975  
2001-10-30 10:48:47 51°38.103 2°27.069 23.133413 0.132697 0.753875  
2001-10-30 10:49:47 51°38.298 2°27.294 23.075578 0.132697 0.753862  
2001-10-30 10:50:47 51°38.497 2°27.537 23.539812 0.132697 0.753862  
2001-10-30 10:51:47 51°38.695 2°27.764 23.053486 0.132697 0.753812  
2001-10-30 10:52:47 51°38.891 2°27.993 22.971917 0.132697 0.753775  
2001-10-30 10:53:47 51°39.095 2°28.211 23.297484 0.132697 0.753787  
2001-10-30 10:54:47 51°39.29 2°28.45 23.66023 0.132697 0.753775  
2001-10-30 10:55:47 51°39.487 2°28.683 23.205554 0.132697 0.753749  
2001-10-30 10:56:47 51°39.686 2°28.919 23.336146 0.132697 0.753674  
2001-10-30 10:57:47 51°39.882 2°29.139 23.101538 0.132697 0.753574  
2001-10-30 10:58:47 51°40.076 2°29.369 23.016107 0.132697 0.753586  
2001-10-30 10:59:47 51°40.269 2°29.589 23.872837 0.132796 0.754173  
2001-10-30 11:00:47 51°40.465 2°29.821 23.016999 0.132796 0.754122  
2001-10-30 11:01:47 51°40.663 2°30.058 23.364289 0.132796 0.754022  
2001-10-30 11:02:47 51°40.872 2°30.263 23.201454 0.132796 0.754034  
2001-10-30 11:03:47 51°41.091 2°30.423 23.251959 0.132796 0.753972  
2001-10-30 11:04:47 51°41.321 2°30.552 23.225512 0.132796 0.753871  
2001-10-30 11:05:47 51°41.558 2°30.628 23.019636 0.132796 0.753871  
2001-10-30 11:06:47 51°41.792 2°30.662 23.498485 0.132796 0.753809  
2001-10-30 11:07:47 51°42.026 2°30.749 23.22528 0.132796 0.753758  
2001-10-30 11:08:47 51°42.264 2°30.818 23.083328 0.132796 0.753859  
2001-10-30 11:09:47 51°42.5 2°30.88 23.446263 0.132796 0.753746  
2001-10-30 11:10:47 51°42.734 2°30.967 23.55552 0.132796 0.753633  
2001-10-30 11:11:47 51°42.971 2°31.031 23.325179 0.132895 0.754181  
2001-10-30 11:12:47 51°43.149 2°31.273 23.484499 0.132895 0.754156  
2001-10-30 11:13:47 51°43.175 2°31.644 23.646467 0.132895 0.754131  
2001-10-30 11:14:47 51°43.078 2°31.964 23.384782 0.132895 0.754068  
2001-10-30 11:15:47 51°42.956 2°32.255 23.402684 0.132895 0.754018  
2001-10-30 11:16:47 51°42.824 2°32.531 23.824337 0.132895 0.753943  
2001-10-30 11:17:47 51°42.688 2°32.8 23.61551 0.132895 0.753918  
2001-10-30 11:18:47 51°42.553 2°33.068 23.343443 0.132895 0.75388  
2001-10-30 11:19:47 51°42.422 2°33.342 23.738183 0.132895 0.753805  
2001-10-30 11:20:47 51°42.287 2°33.608 23.942521 0.132895 0.753755  
2001-10-30 11:21:47 51°42.147 2°33.864 23.764903 0.132895 0.753692  
2001-10-30 11:22:47 51°42.01 2°34.128 23.651081 0.132994 0.754265  
2001-10-30 11:23:47 51°41.873 2°34.393 23.569146 0.132994 0.754228  
2001-10-30 11:24:47 51°41.736 2°34.657 23.552055 0.132994 0.754178  
2001-10-30 11:25:47 51°41.599 2°34.925 23.818353 0.132994 0.754115  
2001-10-30 11:26:47 51°41.46 2°35.192 24.239772 0.132994 0.75409  
2001-10-30 11:27:47 51°41.323 2°35.464 23.495904 0.132994 0.754065  
2001-10-30 11:28:47 51°41.186 2°35.733 23.634509 0.132994 0.75399  
2001-10-30 11:29:47 51°41.053 2°36.012 23.70692 0.132994 0.754002  
2001-10-30 11:30:47 51°40.926 2°36.303 24.244425 0.132994 0.753927  
2001-10-30 11:31:47 51°40.798 2°36.594 23.510196 0.132994 0.753889  
2001-10-30 11:32:47 51°40.675 2°36.887 23.680485 0.133092 0.754425  
2001-10-30 11:33:47 51°40.564 2°37.196 24.034972 0.133092 0.754412  
2001-10-30 11:34:47 51°40.466 2°37.516 23.455708 0.133092 0.754374  
2001-10-30 11:35:47 51°40.365 2°37.833 23.721977 0.133092 0.754312  
2001-10-30 11:36:47 51°40.271 2°38.159 23.698775 0.133092 0.754274  
2001-10-30 11:37:47 51°40.176 2°38.477 23.964803 0.133092 0.754187  
2001-10-30 11:38:47 51°40.08 2°38.798 23.821153 0.133092 0.754162  
2001-10-30 11:39:47 51°39.989 2°39.124 24.178198 0.133092 0.754187  
2001-10-30 11:40:47 51°39.894 2°39.447 24.01516 0.133092 0.754086  
2001-10-30 11:41:47 51°39.803 2°39.772 23.547705 0.133092 0.754011  
2001-10-30 11:42:47 51°39.71 2°40.1 24.129482 0.133092 0.753999  
2001-10-30 11:43:47 51°39.616 2°40.425 23.988531 0.133092 0.753899  
2001-10-30 11:44:47 51°39.524 2°40.753 24.276448 0.133191 0.754446  
2001-10-30 11:45:47 51°39.431 2°41.078 23.911614 0.133191 0.754408  
2001-10-30 11:46:48 51°39.345 2°41.422 24.051911 0.133191 0.754296  
2001-10-30 11:47:47 51°39.256 2°41.754 24.346012 0.133191 0.754308  
2001-10-30 11:48:47 51°39.168 2°42.088 24.229552 0.133191 0.754258  
2001-10-30 11:49:47 51°39.078 2°42.42 23.960592 0.133191 0.754158  
2001-10-30 11:50:47 51°38.989 2°42.748 24.035354 0.133191 0.754108  
2001-10-30 11:51:47 51°38.897 2°43.073 24.485435 0.133191 0.753958  
2001-10-30 11:52:47 51°38.813 2°43.404 24.120353 0.13329 0.75453  
2001-10-30 11:53:47 51°38.733 2°43.737 24.142771 0.13329 0.75448  
2001-10-30 11:54:48 51°38.652 2°44.075 24.364401 0.13329 0.75433  
2001-10-30 11:55:47 51°38.567 2°44.4 24.536762 0.13329 0.75428  
2001-10-30 11:56:47 51°38.485 2°44.733 24.007432 0.13329 0.754255  
2001-10-30 11:57:47 51°38.402 2°45.064 24.399682 0.13329 0.754092  
2001-10-30 11:58:47 51°38.317 2°45.394 24.384803 0.13329 0.75398  
2001-10-30 11:59:47 51°38.237 2°45.73 24.022466 0.13329 0.753968  
2001-10-30 12:00:47 51°38.081 2°45.913 24.193043 0.133389 0.754389  
2001-10-30 12:01:47 51°37.9 2°45.854 24.097928 0.133389 0.754314  
2001-10-30 12:02:47 51°37.714 2°45.801 23.933522 0.133389 0.754202  
2001-10-30 12:03:47 51°37.528 2°45.764 24.156478 0.133389 0.754152  
2001-10-30 12:04:47 51°37.345 2°45.711 24.167435 0.133389 0.754102  
2001-10-30 12:05:47 51°37.163 2°45.639 23.766055 0.133389 0.754065  
2001-10-30 12:06:47 51°36.98 2°45.579 24.124899 0.133487 0.754536  
2001-10-30 12:07:47 51°36.808 2°45.473 23.818583 0.133389 0.753902  
2001-10-30 12:08:47 51°36.734 2°45.209 24.297217 0.133487 0.754461  
2001-10-30 12:09:47 51°36.821 2°44.909 24.115617 0.133487 0.754386  
2001-10-30 12:10:47 51°36.95 2°44.628 24.27923 0.133487 0.754324  
2001-10-30 12:11:47 51°37.064 2°44.336 23.783518 0.133487 0.754261  
2001-10-30 12:12:47 51°37.193 2°44.051 23.877053 0.133487 0.754249  
2001-10-30 12:13:47 51°37.33 2°43.776 24.081382 0.133487 0.754124  
2001-10-30 12:14:47 51°37.477 2°43.499 23.973109 0.133586 0.754645  
2001-10-30 12:15:47 51°37.623 2°43.225 24.343042 0.133586 0.75457  
2001-10-30 12:16:47 51°37.762 2°42.942 24.16022 0.133586 0.754583  
2001-10-30 12:17:47 51°37.886 2°42.647 24.201438 0.133586 0.75452  
2001-10-30 12:18:47 51°37.996 2°42.342 24.240993 0.133586 0.754458  
2001-10-30 12:19:47 51°38.021 2°42.018 24.627474 0.133586 0.754346  
2001-10-30 12:20:47 51°38.028 2°41.695 24.090057 0.133586 0.754321  
2001-10-30 12:21:47 51°38.032 2°41.383 24.258456 0.133586 0.754296  
2001-10-30 12:22:47 51°38.038 2°41.064 24.20098 0.133685 0.754779  
2001-10-30 12:23:47 51°38.032 2°40.747 24.090439 0.133685 0.754679  
2001-10-30 12:24:47 51°38.018 2°40.438 24.528558 0.133685 0.754629  
2001-10-30 12:25:47 51°37.92 2°40.18 24.519517 0.133685 0.75453  
2001-10-30 12:26:47 51°37.797 2°39.958 24.174382 0.133685 0.75448  
2001-10-30 12:27:47 51°37.638 2°39.81 24.432969 0.133685 0.75438  
2001-10-30 12:28:47 51°37.473 2°39.676 24.652276 0.133685 0.75433  
2001-10-30 12:29:47 51°37.308 2°39.54 24.688782 0.133784 0.754838  
2001-10-30 12:30:47 51°37.142 2°39.4 24.827362 0.133784 0.754751  
2001-10-30 12:31:47 51°36.977 2°39.264 24.604484 0.133784 0.754689  
2001-10-30 12:32:47 51°36.808 2°39.135 24.461411 0.133784 0.754651  
2001-10-30 12:33:47 51°36.636 2°39.018 24.629901 0.133784 0.754577  
2001-10-30 12:34:47 51°36.46 2°38.915 24.520087 0.133784 0.754527  
2001-10-30 12:35:47 51°36.285 2°38.814 24.625273 0.133882 0.755022  
2001-10-30 12:36:47 51°36.11 2°38.713 24.075764 0.133882 0.75496  
2001-10-30 12:37:47 51°35.934 2°38.612 24.761588 0.133882 0.754873  
2001-10-30 12:38:47 51°35.757 2°38.508 24.853344 0.133882 0.75481  
2001-10-30 12:39:47 51°35.581 2°38.405 24.410754 0.133882 0.754748  
2001-10-30 12:40:47 51°35.406 2°38.307 24.774157 0.133882 0.754673  
2001-10-30 12:41:47 51°35.242 2°38.446 24.578564 0.133882 0.754586  
2001-10-30 12:42:47 51°35.108 2°38.708 24.396106 0.133981 0.755081  
2001-10-30 12:43:47 51°34.97 2°38.964 24.649584 0.133981 0.755056  
2001-10-30 12:44:47 51°34.828 2°39.216 24.634908 0.133981 0.754895  
2001-10-30 12:45:47 51°34.692 2°39.477 24.574047 0.133981 0.75487  
2001-10-30 12:46:47 51°34.571 2°39.765 24.739701 0.133981 0.754807  
2001-10-30 12:47:47 51°34.447 2°40.048 24.911668 0.133981 0.754683  
2001-10-30 12:48:47 51°34.329 2°40.341 24.736898 0.133981 0.754596  
2001-10-30 12:49:47 51°34.224 2°40.647 24.619318 0.13408 0.755053  
2001-10-30 12:50:47 51°34.118 2°40.95 24.690564 0.13408 0.754979  
2001-10-30 12:51:47 51°34.018 2°41.25 24.767154 0.13408 0.754854  
2001-10-30 12:52:47 51°33.917 2°41.557 24.431942 0.13408 0.754842  
2001-10-30 12:53:47 51°33.813 2°41.861 24.535926 0.13408 0.754705  
2001-10-30 12:54:47 51°33.693 2°42.141 24.701743 0.13408 0.754643  
2001-10-30 12:55:47 51°33.543 2°42.365 24.992366 0.13408 0.754581  
2001-10-30 12:56:47 51°33.383 2°42.57 24.941511 0.134179 0.755063  
2001-10-30 12:57:47 51°33.224 2°42.769 24.644768 0.134179 0.754976  
2001-10-30 12:58:47 51°33.04 2°42.796 24.993046 0.134179 0.754914  
2001-10-30 12:59:47 51°32.861 2°42.711 24.319886 0.134179 0.754827  
2001-10-30 13:00:47 51°32.68 2°42.632 24.788843 0.134179 0.75474  
2001-10-30 13:01:47 51°32.499 2°42.549 24.347421 0.134179 0.754666  
2001-10-30 13:02:47 51°32.318 2°42.466 24.727316 0.134277 0.755197  
2001-10-30 13:03:47 51°32.136 2°42.382 24.608619 0.134277 0.755122  
2001-10-30 13:04:47 51°31.957 2°42.284 24.800045 0.134277 0.755048  
2001-10-30 13:05:47 51°31.782 2°42.172 24.3104 0.134277 0.754986  
2001-10-30 13:06:47 51°31.612 2°42.043 24.942757 0.134277 0.754911  
2001-10-30 13:07:47 51°31.447 2°41.901 24.50869 0.134277 0.754862  
2001-10-30 13:08:47 51°31.287 2°41.748 25.227271 0.134277 0.754787  
2001-10-30 13:09:47 51°31.132 2°41.577 24.808521 0.134376 0.755293  
2001-10-30 13:10:47 51°30.974 2°41.412 24.69477 0.134376 0.755207  
2001-10-30 13:11:47 51°30.827 2°41.22 24.665433 0.134376 0.755169  
2001-10-30 13:12:47 51°30.687 2°41.017 24.946722 0.134376 0.755095  
2001-10-30 13:13:47 51°30.555 2°40.796 24.362993 0.134376 0.755033  
2001-10-30 13:14:47 51°30.437 2°40.555 24.604332 0.134376 0.754971  
2001-10-30 13:15:47 51°30.37 2°40.262 24.754886 0.134475 0.755489  
2001-10-30 13:16:47 51°30.348 2°39.938 24.939018 0.134475 0.755378  
2001-10-30 13:17:47 51°30.318 2°39.623 24.889448 0.134475 0.755353  
2001-10-30 13:18:47 51°30.281 2°39.309 24.469623 0.134475 0.755254  
2001-10-30 13:19:47 51°30.245 2°38.996 24.860188 0.134475 0.755217  
2001-10-30 13:20:47 51°30.215 2°38.679 24.897573 0.134475 0.755179  
2001-10-30 13:21:47 51°30.199 2°38.358 24.780971 0.134475 0.755093  
2001-10-30 13:22:47 51°30.178 2°38.034 24.875424 0.134475 0.755031  
2001-10-30 13:23:47 51°30.159 2°37.712 24.858789 0.134574 0.755524  
2001-10-30 13:24:47 51°30.138 2°37.396 24.838179 0.134574 0.755462  
2001-10-30 13:25:47 51°30.121 2°37.082 24.779116 0.134574 0.755412  
2001-10-30 13:26:47 51°30.103 2°36.765 25.149618 0.134574 0.75535  
2001-10-30 13:27:47 51°30.088 2°36.448 24.875462 0.134574 0.755288  
2001-10-30 13:28:47 51°30.075 2°36.128 24.747389 0.134574 0.755214  
2001-10-30 13:29:47 51°30.051 2°35.815 24.583991 0.134574 0.755214  
2001-10-30 13:30:47 51°29.976 2°35.532 25.165773 0.134574 0.75509  
2001-10-30 13:31:47 51°29.893 2°35.254 24.704471 0.134672 0.755608  
2001-10-30 13:32:47 51°29.793 2°34.994 24.358158 0.134672 0.755583  
2001-10-30 13:33:47 51°29.666 2°34.767 24.60012 0.134672 0.755459  
2001-10-30 13:34:47 51°29.514 2°34.587 25.199276 0.134672 0.755385  
2001-10-30 13:35:47 51°29.332 2°34.505 24.689389 0.134672 0.755311  
2001-10-30 13:36:47 51°29.145 2°34.593 24.949555 0.134672 0.755237  
2001-10-30 13:37:47 51°28.961 2°34.707 24.78169 0.134672 0.755175  
2001-10-30 13:38:47 51°28.775 2°34.804 24.760112 0.134771 0.755692  
2001-10-30 13:39:47 51°28.592 2°34.907 24.455632 0.134771 0.755618  
2001-10-30 13:40:47 51°28.407 2°35.009 24.831258 0.134771 0.755556  
2001-10-30 13:41:47 51°28.221 2°35.108 24.750077 0.134771 0.755507  
2001-10-30 13:42:47 51°28.035 2°35.22 24.851794 0.134771 0.755445  
2001-10-30 13:43:47 51°27.863 2°35.389 24.961185 0.134771 0.755333  
2001-10-30 13:44:47 51°27.684 2°35.545 25.004669 0.134771 0.755247  
2001-10-30 13:45:47 51°27.504 2°35.701 24.696589 0.134771 0.755185  
2001-10-30 13:46:47 51°27.323 2°35.853 25.133611 0.13487 0.75569  
2001-10-30 13:47:47 51°27.143 2°36.003 25.072637 0.13487 0.755628  
2001-10-30 13:48:47 51°26.963 2°36.152 25.211318 0.13487 0.755541  
2001-10-30 13:49:47 51°26.781 2°36.302 25.035153 0.13487 0.75548  
2001-10-30 13:50:47 51°26.602 2°36.454 24.809013 0.13487 0.755393  
2001-10-30 13:51:47 51°26.417 2°36.576 24.841999 0.13487 0.755344  
2001-10-30 13:52:47 51°26.225 2°36.662 24.77764 0.134969 0.75586  
2001-10-30 13:53:47 51°26.035 2°36.758 24.849752 0.134969 0.755762  
2001-10-30 13:54:47 51°25.842 2°36.855 24.899576 0.134969 0.755675  
2001-10-30 13:55:47 51°25.649 2°36.951 24.993046 0.134969 0.755601  
2001-10-30 13:56:47 51°25.456 2°37.046 25.223133 0.134969 0.755527  
2001-10-30 13:57:47 51°25.264 2°37.144 24.928593 0.134969 0.755478  
2001-10-30 13:58:47 51°25.071 2°37.242 24.867523 0.134969 0.755391  
2001-10-30 13:59:47 51°24.877 2°37.34 25.42215 0.135067 0.755895  
2001-10-30 14:00:47 51°24.685 2°37.438 24.813137 0.135067 0.755809  
2001-10-30 14:01:48 51°24.486 2°37.533 24.984554 0.135067 0.755722  
2001-10-30 14:02:47 51°24.299 2°37.652 25.108217 0.135067 0.755673  
2001-10-30 14:03:47 51°24.115 2°37.797 25.215796 0.135067 0.755574  
2001-10-30 14:04:47 51°23.917 2°37.863 24.815861 0.135067 0.755513  
2001-10-30 14:05:47 51°23.719 2°37.923 25.037907 0.135067 0.755439  
2001-10-30 14:06:47 51°23.52 2°37.98 24.642151 0.135166 0.755905  
2001-10-30 14:07:47 51°23.321 2°38.042 25.337905 0.135166 0.755819  
2001-10-30 14:08:47 51°23.121 2°38.101 25.443946 0.135166 0.755757  
2001-10-30 14:09:47 51°22.921 2°38.148 24.827967 0.135166 0.755659  
2001-10-30 14:10:47 51°22.719 2°38.172 25.291311 0.135166 0.755597  
2001-10-30 14:11:48 51°22.511 2°38.201 25.487219 0.135166 0.755523  
2001-10-30 14:12:47 51°22.309 2°38.223 25.095555 0.135166 0.755474  
2001-10-30 14:13:47 51°22.105 2°38.249 25.284282 0.135265 0.75594  
2001-10-30 14:14:48 51°21.896 2°38.287 25.296836 0.135265 0.755866  
2001-10-30 14:15:47 51°21.705 2°38.396 25.058875 0.135265 0.755792  
2001-10-30 14:16:48 51°21.506 2°38.505 25.432317 0.135265 0.755706  
2001-10-30 14:17:47 51°21.327 2°38.659 25.284507 0.135265 0.755596  
2001-10-30 14:18:47 51°21.193 2°38.924 25.387698 0.135265 0.755559  
2001-10-30 14:19:48 51°21.086 2°39.235 24.911592 0.135364 0.755963  
2001-10-30 14:20:47 51°21.009 2°39.556 24.931426 0.135364 0.755914  
2001-10-30 14:21:47 51°20.941 2°39.89 24.88374 0.135364 0.75584  
2001-10-30 14:22:48 51°20.849 2°40.213 25.29413 0.135364 0.755742  
2001-10-30 14:23:48 51°20.763 2°40.534 25.511657 0.135364 0.75568  
2001-10-30 14:24:47 51°20.677 2°40.85 25.27556 0.135364 0.755631  
2001-10-30 14:25:47 51°20.594 2°41.178 25.62205 0.135364 0.755557  
2001-10-30 14:26:47 51°20.503 2°41.499 25.229791 0.135462 0.756035  
2001-10-30 14:27:47 51°20.414 2°41.817 25.145249 0.135462 0.755998  
2001-10-30 14:28:47 51°20.324 2°42.134 25.823086 0.135462 0.755924  
2001-10-30 14:29:48 51°20.232 2°42.455 25.187457 0.135462 0.755838  
2001-10-30 14:30:47 51°20.143 2°42.77 25.042998 0.135462 0.755765  
2001-10-30 14:31:48 51°20.052 2°43.094 25.228362 0.135462 0.755703  
2001-10-30 14:32:48 51°19.964 2°43.412 24.6834 0.135462 0.755617  
2001-10-30 14:33:48 51°19.875 2°43.733 25.399784 0.135561 0.756132  
2001-10-30 14:34:47 51°19.786 2°44.048 25.069206 0.135561 0.756058  
2001-10-30 14:35:47 51°19.696 2°44.37 24.921642 0.135561 0.755972  
2001-10-30 14:36:48 51°19.606 2°44.698 25.117524 0.135561 0.75591  
2001-10-30 14:37:48 51°19.52 2°45.019 25.407966 0.135561 0.755861  
2001-10-30 14:38:47 51°19.432 2°45.329 25.344741 0.135561 0.7558  
2001-10-30 14:39:48 51°19.34 2°45.647 25.234945 0.135561 0.755739  
2001-10-30 14:40:48 51°19.25 2°45.962 25.790502 0.135561 0.755653  
2001-10-30 14:41:48 51°19.16 2°46.279 25.393178 0.13566 0.756155  
2001-10-30 14:42:47 51°19.069 2°46.591 25.284169 0.13566 0.756044  
2001-10-30 14:43:48 51°18.976 2°46.915 25.533951 0.13566 0.75602  
2001-10-30 14:44:47 51°18.885 2°47.229 25.389274 0.13566 0.755921  
2001-10-30 14:45:48 51°18.791 2°47.554 25.33783 0.13566 0.75586  
2001-10-30 14:46:47 51°18.701 2°47.864 25.38293 0.13566 0.755811  
2001-10-30 14:47:48 51°18.609 2°48.185 25.528931 0.13566 0.755713  
2001-10-30 14:48:47 51°18.53 2°48.503 25.267364 0.135759 0.756214  
2001-10-30 14:49:48 51°18.448 2°48.827 25.853157 0.135759 0.756165  
2001-10-30 14:50:48 51°18.369 2°49.145 25.6222 0.135759 0.756067  
2001-10-30 14:51:47 51°18.287 2°49.458 25.256459 0.135759 0.756018  
2001-10-30 14:52:47 51°18.201 2°49.779 25.515854 0.135759 0.755945  
2001-10-30 14:53:47 51°18.117 2°50.098 25.090919 0.135759 0.755859  
2001-10-30 14:54:47 51°18.032 2°50.42 25.429053 0.135759 0.755798  
2001-10-30 14:55:48 51°17.945 2°50.741 25.533464 0.135759 0.755748  
2001-10-30 14:56:47 51°17.854 2°51.048 25.59443 0.135857 0.756262  
2001-10-30 14:57:48 51°17.76 2°51.364 25.367199 0.135857 0.756176  
2001-10-30 14:58:48 51°17.667 2°51.676 24.935732 0.135857 0.756115  
2001-10-30 14:59:47 51°17.553 2°51.959 25.49168 0.135857 0.755992  
2001-10-30 15:00:47 51°17.409 2°52.206 25.558486 0.135857 0.755956  
2001-10-30 15:01:48 51°17.234 2°52.403 26.053414 0.135857 0.75587  
2001-10-30 15:02:47 51°17.054 2°52.564 25.201873 0.135857 0.755796  
2001-10-30 15:03:47 51°16.874 2°52.74 25.806254 0.135857 0.75576  
2001-10-30 15:04:47 51°16.691 2°52.909 25.531441 0.135956 0.756261  
2001-10-30 15:05:47 51°16.506 2°53.079 25.600232 0.135956 0.756163  
2001-10-30 15:06:48 51°16.317 2°53.251 25.547886 0.135956 0.756138  
2001-10-30 15:07:47 51°16.134 2°53.417 25.400873 0.135956 0.756053  
2001-10-30 15:08:48 51°15.945 2°53.591 25.531741 0.135956 0.755955  
2001-10-30 15:09:48 51°15.76 2°53.758 25.932379 0.135956 0.755857  
2001-10-30 15:10:47 51°15.576 2°53.921 25.632863 0.135956 0.755796  
2001-10-30 15:11:47 51°15.391 2°54.087 26.02696 0.136055 0.756296  
2001-10-30 15:12:48 51°15.203 2°54.255 25.791622 0.136055 0.756198  
2001-10-30 15:13:48 51°15.02 2°54.429 25.517016 0.136055 0.756174  
2001-10-30 15:14:47 51°14.839 2°54.595 25.673744 0.136055 0.756088  
2001-10-30 15:15:47 51°14.691 2°54.698 25.676735 0.136055 0.756039  
2001-10-30 15:16:48 51°14.538 2°54.833 25.65613 0.136055 0.755966  
2001-10-30 15:17:47 51°14.402 2°55.013 25.128525 0.136154 0.756442  
2001-10-30 15:18:47 51°14.3 2°55.2 26.005708 0.136154 0.756381  
2001-10-30 15:19:48 51°14.197 2°55.353 25.660768 0.136154 0.756307  
2001-10-30 15:20:48 51°14.083 2°55.447 25.447397 0.136154 0.756246  
2001-10-30 15:21:47 51°13.976 2°55.525 25.822489 0.136154 0.756148  
2001-10-30 15:22:47 51°13.869 2°55.602 25.436856 0.136154 0.756063  
2001-10-30 15:23:48 51°13.798 2°55.657 25.712285 0.136154 0.756002  
2001-10-30 15:24:48 51°13.763 2°55.71 25.418773 0.136252 0.756465  
2001-10-30 15:25:47 51°13.731 2°55.773 25.672248 0.136252 0.756404  
2001-10-30 15:26:48 51°13.702 2°55.835 25.798826 0.136252 0.756319  
2001-10-30 15:27:48 51°13.689 2°55.895 25.992753 0.136252 0.756258  
2001-10-30 15:28:47 51°13.687 2°55.905 25.924367 0.136252 0.756172